Time;durP1;ratioP1;P1;durP2;ratioP2;P2;SDS_P1;SDS_P2;PMS_P1;PMS_P2;Temp;Humidity;BMP_temperature;BMP_pressure;BME280_temperature;BME280_humidity;BME280_pressure;Samples;Min_cycle;Max_cycle;Signal;HPM_P1;HPM_P2
2023/12/22 00:00:36;;;;;;;16.90;3.10;;;;;9.40;100085.00;;;;10390020;28;20218;-80
2023/12/22 00:05:37;;;;;;;19.87;3.00;;;;;9.40;100077.00;;;;10398244;28;20956;-80
2023/12/22 00:10:38;;;;;;;18.17;3.23;;;;;9.60;100083.00;;;;10368627;28;20229;-81
2023/12/22 00:15:40;;;;;;;13.67;3.03;;;;;9.60;100085.00;;;;10372416;28;20229;-80
2023/12/22 00:20:41;;;;;;;9.40;2.20;;;;;9.70;100102.00;;;;10384418;28;20285;-81
2023/12/22 00:25:42;;;;;;;13.27;2.83;;;;;9.80;100104.00;;;;10391683;28;20994;-80
2023/12/22 00:30:43;;;;;;;10.90;2.57;;;;;9.70;100106.00;;;;10396397;28;20237;-80
2023/12/22 00:35:44;;;;;;;6.77;1.97;;;;;9.50;100083.00;;;;10399123;28;20222;-80
2023/12/22 00:40:46;;;;;;;11.03;2.93;;;;;9.40;100124.00;;;;10397085;28;20233;-77
2023/12/22 00:45:47;;;;;;;13.67;2.83;;;;;9.20;100114.00;;;;10396243;28;20788;-77
2023/12/22 00:50:48;;;;;;;10.53;2.13;;;;;9.10;100111.00;;;;10395097;28;21018;-77
2023/12/22 00:55:49;;;;;;;12.90;3.13;;;;;9.00;100106.00;;;;10369243;28;20225;-79
2023/12/22 01:00:50;;;;;;;12.90;3.93;;;;;9.00;100100.00;;;;10373531;28;20253;-78
2023/12/22 01:05:51;;;;;;;13.80;3.87;;;;;9.00;100106.00;;;;10404918;28;20210;-76
2023/12/22 01:10:53;;;;;;;18.17;3.53;;;;;9.00;100098.00;;;;10386424;28;20312;-78
2023/12/22 01:15:54;;;;;;;18.63;3.43;;;;;9.00;100074.00;;;;10393631;28;20221;-77
2023/12/22 01:20:56;;;;;;;14.57;3.13;;;;;9.00;100087.00;;;;10383170;28;20214;-77
2023/12/22 01:25:57;;;;;;;17.43;3.17;;;;;9.00;100085.00;;;;10373965;28;20305;-77
2023/12/22 01:30:58;;;;;;;16.90;3.63;;;;;9.10;100099.00;;;;10376380;28;20626;-78
2023/12/22 01:35:59;;;;;;;14.90;3.63;;;;;9.10;100112.00;;;;10374555;28;20793;-79
2023/12/22 01:41:01;;;;;;;16.43;3.33;;;;;9.20;100092.00;;;;10374347;28;20308;-76
2023/12/22 01:46:03;;;;;;;17.20;3.30;;;;;9.20;100120.00;;;;10382712;28;20221;-77
2023/12/22 01:51:06;;;;;;;15.73;3.87;;;;;9.20;100128.00;;;;10385419;28;20229;-82
2023/12/22 01:56:07;;;;;;;22.33;3.47;;;;;9.20;100139.00;;;;10393903;28;20848;-82
2023/12/22 02:01:09;;;;;;;21.03;3.27;;;;;9.30;100143.00;;;;10378207;28;20229;-83
2023/12/22 02:06:10;;;;;;;20.70;3.53;;;;;9.30;100147.00;;;;10388543;28;20221;-82
2023/12/22 02:11:11;;;;;;;14.37;3.67;;;;;9.40;100148.00;;;;10387338;28;20229;-83
2023/12/22 02:16:22;;;;;;;16.67;4.17;;;;;9.30;100165.00;;;;10376063;28;20222;-82
2023/12/22 02:21:24;;;;;;;12.07;3.30;;;;;9.30;100156.00;;;;10385007;28;20293;-84
2023/12/22 02:26:33;;;;;;;16.47;4.03;;;;;9.20;100162.00;;;;10400282;28;20217;-84
2023/12/22 02:31:44;;;;;;;19.30;3.60;;;;;9.10;100161.00;;;;10394661;28;20229;-83
2023/12/22 02:36:47;;;;;;;9.73;2.87;;;;;9.20;100163.00;;;;10402284;28;20271;-83
2023/12/22 02:41:49;;;;;;;17.03;3.30;;;;;9.30;100175.00;;;;10387327;28;20305;-82
2023/12/22 02:46:51;;;;;;;16.50;2.87;;;;;9.20;100138.00;;;;10370610;28;20226;-82
2023/12/22 02:51:52;;;;;;;10.87;2.83;;;;;9.20;100158.00;;;;10411959;28;20268;-83
2023/12/22 02:56:53;;;;;;;13.60;2.53;;;;;9.30;100175.00;;;;10404744;28;20675;-82
2023/12/22 03:01:54;;;;;;;9.90;2.87;;;;;9.30;100166.00;;;;10399432;28;20272;-80
2023/12/22 03:06:56;;;;;;;13.33;2.50;;;;;9.30;100150.00;;;;10387237;28;20656;-80
2023/12/22 03:12:01;;;;;;;8.90;2.77;;;;;9.20;100186.00;;;;10383557;28;20223;-83
2023/12/22 03:17:04;;;;;;;9.23;2.57;;;;;9.20;100181.00;;;;10392529;28;20983;-82
2023/12/22 03:22:05;;;;;;;10.70;2.10;;;;;9.10;100164.00;;;;10385667;28;20217;-81
2023/12/22 03:27:07;;;;;;;14.07;2.47;;;;;9.00;100162.00;;;;10377863;28;20233;-83
2023/12/22 03:32:08;;;;;;;11.77;2.57;;;;;9.00;100163.00;;;;10403222;28;20213;-82
2023/12/22 03:37:09;;;;;;;14.80;3.70;;;;;9.00;100163.00;;;;10394539;28;20239;-81
2023/12/22 03:42:10;;;;;;;11.20;2.80;;;;;9.00;100150.00;;;;10410895;28;20218;-81
2023/12/22 03:47:11;;;;;;;21.83;3.77;;;;;9.00;100160.00;;;;10393628;28;20233;-82
2023/12/22 03:52:14;;;;;;;16.07;3.90;;;;;9.00;100155.00;;;;10390961;28;20241;-80
2023/12/22 03:57:15;;;;;;;16.33;3.00;;;;;8.90;100150.00;;;;10396615;28;20613;-82
2023/12/22 04:02:16;;;;;;;18.13;3.53;;;;;8.80;100156.00;;;;10400546;28;20222;-81
2023/12/22 04:07:19;;;;;;;11.67;2.80;;;;;8.80;100148.00;;;;10401956;28;20306;-81
2023/12/22 04:12:20;;;;;;;15.87;3.00;;;;;8.80;100147.00;;;;10377042;28;20926;-82
2023/12/22 04:17:21;;;;;;;14.83;3.50;;;;;8.70;100155.00;;;;10390338;28;21448;-82
2023/12/22 04:22:23;;;;;;;16.27;2.97;;;;;8.60;100151.00;;;;10400833;28;20237;-81
2023/12/22 04:27:24;;;;;;;18.17;3.83;;;;;8.40;100153.00;;;;10403118;28;21150;-82
2023/12/22 04:32:25;;;;;;;16.47;4.03;;;;;8.40;100151.00;;;;10385553;28;20305;-80
2023/12/22 04:37:27;;;;;;;17.03;3.73;;;;;8.40;100160.00;;;;10370770;28;20253;-80
2023/12/22 04:42:29;;;;;;;21.67;4.00;;;;;8.40;100157.00;;;;10397267;28;20215;-80
2023/12/22 04:47:30;;;;;;;22.30;3.90;;;;;8.30;100161.00;;;;10416921;28;20261;-82
2023/12/22 04:52:32;;;;;;;22.60;4.13;;;;;8.20;100156.00;;;;10405313;28;20692;-79
2023/12/22 04:57:33;;;;;;;23.60;4.27;;;;;8.20;100170.00;;;;10402689;28;20237;-80
2023/12/22 05:02:34;;;;;;;24.33;4.90;;;;;8.30;100172.00;;;;10402161;28;20218;-80
2023/12/22 05:07:35;;;;;;;22.17;4.53;;;;;8.20;100171.00;;;;10397409;28;20264;-80
2023/12/22 05:12:37;;;;;;;19.97;4.43;;;;;8.20;100166.00;;;;10383763;28;20245;-79
2023/12/22 05:17:40;;;;;;;30.30;4.90;;;;;8.20;100157.00;;;;10390802;28;20230;-81
2023/12/22 05:22:41;;;;;;;20.87;4.13;;;;;8.30;100161.00;;;;10386583;28;20220;-79
2023/12/22 05:27:43;;;;;;;30.53;5.70;;;;;8.40;100165.00;;;;10381173;28;20317;-79
2023/12/22 05:32:44;;;;;;;20.27;5.43;;;;;8.50;100182.00;;;;10384457;28;20803;-80
2023/12/22 05:37:45;;;;;;;23.20;5.07;;;;;8.60;100174.00;;;;10377879;28;20265;-81
2023/12/22 05:42:47;;;;;;;25.07;4.60;;;;;8.70;100173.00;;;;10387556;28;20218;-82
2023/12/22 05:47:48;;;;;;;21.83;4.70;;;;;8.80;100177.00;;;;10413724;28;20254;-82
2023/12/22 05:52:50;;;;;;;28.07;4.73;;;;;8.90;100177.00;;;;10386315;28;20214;-82
2023/12/22 05:57:51;;;;;;;29.70;5.53;;;;;9.00;100167.00;;;;10388402;28;20305;-81
2023/12/22 06:02:52;;;;;;;25.37;4.87;;;;;9.00;100171.00;;;;10407769;28;20225;-83
2023/12/22 06:07:53;;;;;;;24.23;4.80;;;;;9.00;100171.00;;;;10374646;28;20991;-81
2023/12/22 06:12:54;;;;;;;28.47;4.87;;;;;9.00;100170.00;;;;10372055;28;20227;-81
2023/12/22 06:17:56;;;;;;;28.80;5.47;;;;;9.00;100165.00;;;;10384280;28;20892;-82
2023/12/22 06:22:57;;;;;;;24.23;5.20;;;;;8.90;100175.00;;;;10392134;28;20790;-81
2023/12/22 06:27:58;;;;;;;24.57;4.90;;;;;8.80;100148.00;;;;10388294;28;20241;-83
2023/12/22 06:32:59;;;;;;;22.47;4.40;;;;;8.80;100154.00;;;;10378862;28;20244;-82
2023/12/22 06:38:03;;;;;;;22.00;4.30;;;;;8.80;100154.00;;;;10376244;28;20214;-83
2023/12/22 06:43:08;;;;;;;19.37;3.27;;;;;8.80;100176.00;;;;10373549;28;20220;-83
2023/12/22 06:48:11;;;;;;;16.13;3.10;;;;;8.80;100168.00;;;;10388916;28;20304;-83
2023/12/22 06:53:13;;;;;;;14.07;3.10;;;;;8.80;100159.00;;;;10373738;28;20230;-82
2023/12/22 06:58:26;;;;;;;16.87;3.10;;;;;8.70;100177.00;;;;10376451;28;20238;-82
2023/12/22 07:03:28;;;;;;;13.07;2.53;;;;;8.60;100181.00;;;;10379515;28;20214;-81
2023/12/22 07:08:29;;;;;;;12.87;3.03;;;;;8.50;100174.00;;;;10371440;28;20241;-85
2023/12/22 07:13:30;;;;;;;12.53;2.23;;;;;8.40;100174.00;;;;10378044;28;20222;-82
2023/12/22 07:18:31;;;;;;;9.30;2.40;;;;;8.30;100170.00;;;;10424025;28;20225;-80
2023/12/22 07:23:33;;;;;;;12.43;2.70;;;;;8.30;100160.00;;;;10384025;28;20222;-78
2023/12/22 07:28:34;;;;;;;12.93;2.80;;;;;8.30;100152.00;;;;10407435;28;20234;-80
2023/12/22 07:33:35;;;;;;;14.83;2.97;;;;;8.30;100153.00;;;;10380553;28;20218;-80
2023/12/22 07:38:39;;;;;;;8.47;2.40;;;;;8.30;100147.00;;;;10393120;28;20688;-79
2023/12/22 07:43:42;;;;;;;10.63;2.40;;;;;8.40;100143.00;;;;10385628;28;20230;-79
2023/12/22 07:48:45;;;;;;;11.97;2.67;;;;;8.40;100143.00;;;;10383319;28;20218;-79
2023/12/22 07:53:46;;;;;;;5.60;2.13;;;;;8.40;100147.00;;;;10387081;28;20214;-78
2023/12/22 07:58:47;;;;;;;9.80;2.30;;;;;8.50;100151.00;;;;10385237;28;20217;-83
2023/12/22 08:03:48;;;;;;;6.67;2.43;;;;;8.60;100156.00;;;;10407138;28;20217;-82
2023/12/22 08:08:50;;;;;;;5.37;1.87;;;;;8.60;100149.00;;;;10372461;28;20305;-83
2023/12/22 08:13:51;;;;;;;3.43;1.80;;;;;8.70;100148.00;;;;10386484;28;20222;-83
2023/12/22 08:18:52;;;;;;;3.70;2.10;;;;;8.80;100144.00;;;;10397473;28;20575;-81
2023/12/22 08:23:54;;;;;;;7.60;2.03;;;;;8.80;100145.00;;;;10379917;28;20222;-85
2023/12/22 08:28:57;;;;;;;4.03;2.17;;;;;8.80;100138.00;;;;10420380;28;20233;-84
2023/12/22 08:33:58;;;;;;;4.27;2.37;;;;;8.90;100143.00;;;;10414383;28;20279;-84
2023/12/22 08:38:59;;;;;;;4.87;2.33;;;;;9.00;100150.00;;;;10402419;28;20214;-83
2023/12/22 08:44:06;;;;;;;6.80;2.90;;;;;9.10;100161.00;;;;10426613;28;20222;-81
2023/12/22 08:49:08;;;;;;;6.53;2.97;;;;;9.10;100150.00;;;;10386438;28;20226;-84
2023/12/22 08:54:09;;;;;;;6.53;2.30;;;;;9.20;100156.00;;;;10370769;28;20744;-82
2023/12/22 08:59:10;;;;;;;3.73;2.77;;;;;9.20;100149.00;;;;10385586;28;20249;-83
2023/12/22 09:04:11;;;;;;;5.83;3.23;;;;;9.20;100157.00;;;;10377563;28;20225;-82
2023/12/22 09:09:12;;;;;;;7.03;3.57;;;;;9.20;100139.00;;;;10396006;28;20244;-82
2023/12/22 09:14:14;;;;;;;10.10;3.83;;;;;9.30;100134.00;;;;10397692;28;20841;-83
2023/12/22 09:19:15;;;;;;;4.40;2.63;;;;;9.30;100142.00;;;;10390449;28;20212;-82
2023/12/22 09:24:17;;;;;;;9.03;3.50;;;;;9.30;100142.00;;;;10373247;28;20222;-82
2023/12/22 09:29:18;;;;;;;4.70;2.57;;;;;9.30;100138.00;;;;10387755;28;20234;-81
2023/12/22 09:34:19;;;;;;;6.93;2.80;;;;;9.30;100129.00;;;;10389388;28;20269;-82
2023/12/22 09:39:20;;;;;;;6.87;3.13;;;;;9.40;100117.00;;;;10415646;28;20287;-82
2023/12/22 09:44:22;;;;;;;5.50;2.00;;;;;9.40;100132.00;;;;10386055;28;20269;-81
2023/12/22 09:49:24;;;;;;;5.53;1.87;;;;;9.40;100133.00;;;;10395843;28;20221;-83
2023/12/22 09:54:26;;;;;;;5.90;1.70;;;;;9.50;100135.00;;;;10396406;28;20241;-81
2023/12/22 09:59:28;;;;;;;5.63;1.53;;;;;9.60;100144.00;;;;10377719;28;20225;-82
2023/12/22 10:04:30;;;;;;;3.40;1.37;;;;;9.70;100157.00;;;;10393331;28;20221;-83
2023/12/22 10:09:32;;;;;;;6.83;1.10;;;;;9.80;100155.00;;;;10395693;28;20237;-84
2023/12/22 10:14:35;;;;;;;2.27;0.97;;;;;9.90;100156.00;;;;10391161;28;20245;-83
2023/12/22 10:19:41;;;;;;;4.63;1.00;;;;;10.10;100150.00;;;;10392189;28;20221;-79
2023/12/22 10:24:47;;;;;;;5.20;1.30;;;;;10.40;100147.00;;;;10393403;28;20221;-81
2023/12/22 10:29:49;;;;;;;2.67;0.73;;;;;10.50;100147.00;;;;10411651;28;20853;-82
2023/12/22 10:34:52;;;;;;;3.27;0.90;;;;;10.50;100147.00;;;;10417473;28;20241;-81
2023/12/22 10:39:54;;;;;;;3.07;1.00;;;;;10.60;100151.00;;;;10383931;28;20233;-80
2023/12/22 10:44:56;;;;;;;2.07;0.53;;;;;10.30;100136.00;;;;10381707;28;20213;-82
2023/12/22 10:50:02;;;;;;;4.93;1.30;;;;;10.20;100157.00;;;;10387473;28;20316;-82
2023/12/22 10:55:04;;;;;;;4.30;0.93;;;;;9.90;100177.00;;;;10377409;28;20236;-84
2023/12/22 11:00:07;;;;;;;3.50;1.00;;;;;9.80;100165.00;;;;10394099;28;20229;-80
2023/12/22 11:05:11;;;;;;;2.87;1.43;;;;;9.80;100161.00;;;;10389822;28;20249;-82
2023/12/22 11:10:17;;;;;;;3.70;1.37;;;;;9.80;100157.00;;;;10394263;28;20234;-80
2023/12/22 11:15:19;;;;;;;5.30;1.47;;;;;9.80;100165.00;;;;10394477;28;20218;-80
2023/12/22 11:20:24;;;;;;;4.47;1.40;;;;;9.70;100152.00;;;;10391727;28;20227;-80
2023/12/22 11:25:26;;;;;;;6.33;1.33;;;;;9.70;100150.00;;;;10405399;28;20209;-81
2023/12/22 11:30:29;;;;;;;3.20;1.10;;;;;9.70;100154.00;;;;10378443;28;20867;-80
2023/12/22 11:35:31;;;;;;;3.70;1.47;;;;;9.80;100124.00;;;;10403741;28;20214;-81
2023/12/22 11:40:36;;;;;;;2.10;1.00;;;;;9.80;100149.00;;;;10386291;28;20252;-80
2023/12/22 11:45:37;;;;;;;3.07;1.73;;;;;9.80;100140.00;;;;10386576;28;20583;-80
2023/12/22 11:50:38;;;;;;;2.73;0.90;;;;;9.80;100133.00;;;;10407382;28;20335;-81
2023/12/22 11:56:01;;;;;;;3.53;0.83;;;;;9.90;100131.00;;;;10379599;28;20294;-83
2023/12/22 12:01:05;;;;;;;15.47;1.90;;;;;10.00;100123.00;;;;10382194;28;20226;-79
2023/12/22 12:06:25;;;;;;;5.33;2.03;;;;;10.00;100127.00;;;;10389280;28;20320;-81
2023/12/22 12:11:52;;;;;;;7.90;1.00;;;;;9.90;100114.00;;;;10392172;28;20222;-80
2023/12/22 12:17:05;;;;;;;4.57;1.37;;;;;10.10;100124.00;;;;10373656;28;20229;-80
2023/12/22 12:22:07;;;;;;;6.47;1.23;;;;;10.50;100114.00;;;;10399357;28;20225;-80
2023/12/22 12:27:08;;;;;;;2.57;1.00;;;;;10.70;100110.00;;;;10392412;28;20603;-81
2023/12/22 12:32:14;;;;;;;7.00;1.37;;;;;10.80;100098.00;;;;10398079;28;20226;-80
2023/12/22 12:37:16;;;;;;;6.17;0.97;;;;;10.50;100114.00;;;;10391665;28;20737;-78
2023/12/22 12:42:21;;;;;;;3.37;1.33;;;;;10.40;100107.00;;;;10393037;28;20222;-81
2023/12/22 12:47:23;;;;;;;3.23;0.90;;;;;10.30;100093.00;;;;10398756;28;20222;-82
2023/12/22 12:52:25;;;;;;;6.17;1.53;;;;;10.20;100109.00;;;;10393972;28;20754;-84
2023/12/22 12:57:26;;;;;;;2.43;1.10;;;;;10.20;100106.00;;;;10376765;28;20716;-82
2023/12/22 13:02:27;;;;;;;4.43;1.10;;;;;10.30;100116.00;;;;10377501;28;20246;-82
2023/12/22 13:07:30;;;;;;;4.67;1.67;;;;;10.40;100096.00;;;;10404506;28;20218;-83
2023/12/22 13:12:32;;;;;;;2.20;0.70;;;;;10.50;100135.00;;;;10389447;28;20305;-83
2023/12/22 13:17:34;;;;;;;8.73;1.10;;;;;10.50;100100.00;;;;10413036;28;20218;-82
2023/12/22 13:22:38;;;;;;;7.60;1.33;;;;;10.50;100126.00;;;;10397160;28;20238;-81
2023/12/22 13:27:46;;;;;;;4.67;1.10;;;;;10.50;100117.00;;;;10381238;28;20320;-82
2023/12/22 13:32:54;;;;;;;4.97;1.90;;;;;10.60;100098.00;;;;10383274;28;20233;-79
2023/12/22 13:37:55;;;;;;;7.03;1.50;;;;;10.60;100123.00;;;;10369121;28;20214;-79
2023/12/22 13:42:57;;;;;;;6.60;1.60;;;;;10.50;100150.00;;;;10405137;28;20245;-80
2023/12/22 13:47:58;;;;;;;4.07;0.93;;;;;10.30;100147.00;;;;10398311;28;20310;-80
2023/12/22 13:53:09;;;;;;;3.20;1.13;;;;;10.10;100121.00;;;;10399872;28;20247;-79
2023/12/22 13:58:12;;;;;;;3.30;1.00;;;;;10.10;100143.00;;;;10393263;28;20217;-78
2023/12/22 14:03:16;;;;;;;3.90;1.00;;;;;10.00;100142.00;;;;10373349;28;20234;-77
2023/12/22 14:08:17;;;;;;;7.03;1.30;;;;;10.10;100148.00;;;;10380141;28;20225;-77
2023/12/22 14:13:18;;;;;;;5.60;1.10;;;;;10.20;100171.00;;;;10387947;28;20230;-80
2023/12/22 14:18:19;;;;;;;4.30;1.00;;;;;10.30;100171.00;;;;10396162;28;20260;-78
2023/12/22 14:23:21;;;;;;;6.70;0.90;;;;;10.30;100147.00;;;;10385037;28;20233;-78
2023/12/22 14:28:23;;;;;;;5.07;0.87;;;;;10.40;100174.00;;;;10397964;28;20217;-79
2023/12/22 14:33:24;;;;;;;5.53;1.20;;;;;10.40;100186.00;;;;10409005;28;20219;-78
2023/12/22 14:38:31;;;;;;;5.77;1.27;;;;;10.50;100181.00;;;;10395703;28;20580;-78
2023/12/22 14:43:33;;;;;;;5.23;0.83;;;;;10.50;100179.00;;;;10400939;28;20232;-79
2023/12/22 14:48:34;;;;;;;5.67;1.00;;;;;10.50;100206.00;;;;10401505;28;20280;-78
2023/12/22 14:53:35;;;;;;;3.20;1.00;;;;;10.60;100214.00;;;;10383186;28;20215;-79
2023/12/22 14:58:37;;;;;;;4.33;0.93;;;;;10.60;100213.00;;;;10387449;28;20226;-83
2023/12/22 15:03:40;;;;;;;9.03;1.30;;;;;10.50;100205.00;;;;10397855;28;20614;-84
2023/12/22 15:08:42;;;;;;;5.97;1.33;;;;;10.60;100207.00;;;;10398828;28;20305;-80
2023/12/22 15:13:43;;;;;;;4.87;1.10;;;;;10.60;100177.00;;;;10375371;28;20223;-80
2023/12/22 15:18:44;;;;;;;4.63;1.70;;;;;10.70;100223.00;;;;10396519;28;20926;-81
2023/12/22 15:23:45;;;;;;;2.53;1.00;;;;;10.60;100248.00;;;;10388321;28;20237;-82
2023/12/22 15:28:46;;;;;;;3.93;0.93;;;;;10.60;100239.00;;;;10391117;28;20224;-84
2023/12/22 15:33:48;;;;;;;2.57;0.90;;;;;10.60;100231.00;;;;10384285;28;20246;-81
2023/12/22 15:38:49;;;;;;;6.17;1.83;;;;;10.60;100218.00;;;;10405874;28;20218;-80
2023/12/22 15:43:52;;;;;;;4.93;1.10;;;;;10.60;100255.00;;;;10415256;28;20253;-79
2023/12/22 15:48:53;;;;;;;2.33;0.80;;;;;10.60;100255.00;;;;10371665;28;20273;-80
2023/12/22 15:53:54;;;;;;;2.90;0.70;;;;;10.60;100259.00;;;;10388669;28;20309;-82
2023/12/22 15:58:55;;;;;;;3.93;1.00;;;;;10.80;100284.00;;;;10410845;28;20250;-82
2023/12/22 16:03:56;;;;;;;5.37;1.37;;;;;10.70;100272.00;;;;10377671;28;20237;-83
2023/12/22 16:08:58;;;;;;;1.90;0.90;;;;;10.70;100273.00;;;;10383565;28;20271;-80
2023/12/22 16:13:59;;;;;;;4.73;1.00;;;;;10.80;100287.00;;;;10375229;28;20223;-80
2023/12/22 16:19:01;;;;;;;4.40;1.60;;;;;10.80;100299.00;;;;10398301;28;20312;-81
2023/12/22 16:24:03;;;;;;;5.13;1.20;;;;;10.80;100308.00;;;;10383283;28;20240;-81
2023/12/22 16:29:04;;;;;;;5.13;1.20;;;;;10.90;100316.00;;;;10390275;28;20263;-80
2023/12/22 16:34:05;;;;;;;5.70;0.87;;;;;10.80;100319.00;;;;10388944;28;20217;-81
2023/12/22 16:39:09;;;;;;;2.90;1.20;;;;;10.90;100316.00;;;;10387138;28;20641;-79
2023/12/22 16:44:11;;;;;;;3.60;0.90;;;;;10.90;100326.00;;;;10395864;28;20226;-79
2023/12/22 16:49:13;;;;;;;8.47;1.77;;;;;10.90;100313.00;;;;10438790;28;20304;-80
2023/12/22 16:54:14;;;;;;;4.07;1.67;;;;;10.90;100322.00;;;;10370174;28;20240;-80
2023/12/22 16:59:15;;;;;;;6.50;1.40;;;;;10.90;100335.00;;;;10394916;28;21005;-80
2023/12/22 17:04:16;;;;;;;3.67;1.30;;;;;10.90;100349.00;;;;10390933;28;20221;-79
2023/12/22 17:09:19;;;;;;;5.40;1.27;;;;;10.80;100356.00;;;;10370373;28;20249;-80
2023/12/22 17:14:21;;;;;;;3.17;1.23;;;;;10.80;100334.00;;;;10376515;28;20240;-80
2023/12/22 17:19:23;;;;;;;3.90;1.53;;;;;10.80;100336.00;;;;10413272;28;20222;-83
2023/12/22 17:24:25;;;;;;;3.17;1.40;;;;;10.80;100352.00;;;;10371801;28;20225;-81
2023/12/22 17:29:26;;;;;;;2.63;1.00;;;;;10.80;100348.00;;;;10389075;28;20774;-82
2023/12/22 17:34:28;;;;;;;8.20;1.60;;;;;10.90;100371.00;;;;10378782;28;20725;-81
2023/12/22 17:39:34;;;;;;;4.17;1.23;;;;;10.90;100379.00;;;;10376373;28;20214;-80
2023/12/22 17:44:35;;;;;;;5.27;1.10;;;;;10.80;100331.00;;;;10383023;28;20226;-82
2023/12/22 17:49:36;;;;;;;4.43;1.23;;;;;10.80;100376.00;;;;10383664;28;20249;-82
2023/12/22 17:54:37;;;;;;;4.50;1.40;;;;;10.80;100370.00;;;;10400113;28;20228;-81
2023/12/22 17:59:41;;;;;;;7.43;1.47;;;;;10.80;100282.00;;;;10366920;28;20246;-82
2023/12/22 18:04:42;;;;;;;6.87;1.57;;;;;10.80;100374.00;;;;10380478;28;20214;-82
2023/12/22 18:09:44;;;;;;;6.10;1.53;;;;;10.80;100379.00;;;;10392919;28;20230;-80
2023/12/22 18:14:45;;;;;;;5.70;1.37;;;;;10.80;100369.00;;;;10382057;28;20767;-80
2023/12/22 18:19:46;;;;;;;3.50;1.10;;;;;10.80;100394.00;;;;10398668;28;20762;-81
2023/12/22 18:24:48;;;;;;;4.77;1.17;;;;;10.80;100384.00;;;;10376274;28;20747;-82
2023/12/22 18:29:49;;;;;;;2.13;0.97;;;;;10.80;100372.00;;;;10370665;28;20245;-76
2023/12/22 18:34:50;;;;;;;3.10;1.10;;;;;10.80;100393.00;;;;10400395;28;20227;-74
2023/12/22 18:39:51;;;;;;;5.20;1.40;;;;;10.70;100409.00;;;;10374495;28;20867;-78
2023/12/22 18:44:55;;;;;;;4.67;1.20;;;;;10.80;100416.00;;;;10387588;28;20222;-78
2023/12/22 18:49:56;;;;;;;3.80;1.00;;;;;10.80;100411.00;;;;10374624;28;20232;-78
2023/12/22 18:54:57;;;;;;;9.87;1.67;;;;;10.80;100408.00;;;;10382289;28;20246;-77
2023/12/22 18:59:59;;;;;;;4.13;1.00;;;;;10.90;100426.00;;;;10374022;28;21019;-77
2023/12/22 19:05:01;;;;;;;1.90;1.03;;;;;10.90;100440.00;;;;10395182;28;20215;-77
2023/12/22 19:10:02;;;;;;;2.70;0.80;;;;;11.00;100433.00;;;;10384070;28;20222;-77
2023/12/22 19:15:04;;;;;;;5.20;1.17;;;;;10.90;100443.00;;;;10395307;28;21102;-78
2023/12/22 19:20:08;;;;;;;3.77;1.33;;;;;10.90;100445.00;;;;10392470;28;20229;-78
2023/12/22 19:25:10;;;;;;;3.73;1.40;;;;;10.90;100481.00;;;;10400653;28;20222;-76
2023/12/22 19:30:11;;;;;;;2.43;1.00;;;;;10.90;100445.00;;;;10398520;28;20226;-76
2023/12/22 19:35:12;;;;;;;2.00;1.00;;;;;10.90;100507.00;;;;10406224;28;20246;-80
2023/12/22 19:40:17;;;;;;;4.43;1.07;;;;;10.80;100469.00;;;;10411574;28;20226;-84
2023/12/22 19:45:18;;;;;;;3.87;1.30;;;;;10.90;100506.00;;;;10409508;28;20213;-84
2023/12/22 19:50:19;;;;;;;4.97;1.17;;;;;10.90;100514.00;;;;10400516;28;20249;-83
2023/12/22 19:55:21;;;;;;;5.93;1.27;;;;;10.80;100514.00;;;;10398137;28;20249;-85
2023/12/22 20:00:26;;;;;;;4.03;1.20;;;;;10.80;100538.00;;;;10403286;28;20233;-87
2023/12/22 20:05:27;;;;;;;7.73;1.47;;;;;10.90;100528.00;;;;10388637;28;20226;-86
2023/12/22 20:10:30;;;;;;;5.73;1.63;;;;;10.80;100529.00;;;;10397461;28;20226;-84
2023/12/22 20:15:31;;;;;;;3.50;1.03;;;;;10.90;100538.00;;;;10402440;28;20207;-87
2023/12/22 20:20:32;;;;;;;4.33;1.60;;;;;10.80;100548.00;;;;10392863;28;20230;-86
2023/12/22 20:25:34;;;;;;;7.27;1.43;;;;;10.80;100548.00;;;;10388682;28;20222;-82
2023/12/22 20:30:35;;;;;;;5.37;1.40;;;;;10.80;100564.00;;;;10405057;28;20268;-86
2023/12/22 20:35:37;;;;;;;9.40;1.63;;;;;10.80;100558.00;;;;10389447;28;20218;-85
2023/12/22 20:40:38;;;;;;;7.43;1.50;;;;;10.90;100574.00;;;;10396120;28;20225;-87
2023/12/22 20:45:41;;;;;;;4.80;1.40;;;;;10.90;100550.00;;;;10407317;28;20221;-84
2023/12/22 20:50:43;;;;;;;9.30;1.70;;;;;10.80;100588.00;;;;10391317;28;20276;-81
2023/12/22 20:55:44;;;;;;;7.67;1.63;;;;;10.80;100581.00;;;;10379581;28;20218;-78
2023/12/22 21:00:46;;;;;;;2.00;1.20;;;;;10.80;100583.00;;;;10396648;28;20221;-78
2023/12/22 21:05:47;;;;;;;7.67;1.53;;;;;10.70;100600.00;;;;10371777;28;21187;-79
2023/12/22 21:10:49;;;;;;;3.07;1.60;;;;;10.70;100595.00;;;;10365825;28;20820;-80
2023/12/22 21:15:50;;;;;;;2.03;1.30;;;;;10.60;100580.00;;;;10400370;28;20213;-79
2023/12/22 21:20:52;;;;;;;3.80;1.33;;;;;10.60;100590.00;;;;10377215;28;20206;-78
2023/12/22 21:25:54;;;;;;;5.33;1.80;;;;;10.60;100591.00;;;;10404924;28;20248;-79
2023/12/22 21:30:55;;;;;;;7.00;1.37;;;;;10.50;100579.00;;;;10383266;28;20229;-79
2023/12/22 21:35:57;;;;;;;7.10;1.47;;;;;10.40;100615.00;;;;10368767;28;20253;-79
2023/12/22 21:40:58;;;;;;;4.43;1.70;;;;;10.30;100619.00;;;;10395792;28;20234;-78
2023/12/22 21:46:01;;;;;;;3.57;1.27;;;;;10.40;100626.00;;;;10373310;28;20225;-81
2023/12/22 21:51:04;;;;;;;5.70;1.50;;;;;10.40;100617.00;;;;10396355;28;20235;-79
2023/12/22 21:56:05;;;;;;;5.40;1.33;;;;;10.50;100620.00;;;;10374701;28;20301;-80
2023/12/22 22:01:07;;;;;;;3.80;1.33;;;;;10.50;100634.00;;;;10379555;28;20376;-77
2023/12/22 22:06:08;;;;;;;6.60;1.50;;;;;10.50;100632.00;;;;10375112;28;20222;-76
2023/12/22 22:11:09;;;;;;;7.17;1.47;;;;;10.50;100639.00;;;;10400303;28;20229;-76
2023/12/22 22:16:11;;;;;;;4.83;1.70;;;;;10.50;100637.00;;;;10385359;28;20217;-75
2023/12/22 22:21:12;;;;;;;3.43;1.33;;;;;10.50;100629.00;;;;10371954;28;20223;-77
2023/12/22 22:26:14;;;;;;;2.90;1.33;;;;;10.50;100646.00;;;;10400798;28;20218;-77
2023/12/22 22:31:16;;;;;;;6.50;1.50;;;;;10.50;100646.00;;;;10374263;28;20253;-76
2023/12/22 22:36:17;;;;;;;5.73;1.53;;;;;10.50;100648.00;;;;10371219;28;20297;-75
2023/12/22 22:41:20;;;;;;;6.37;1.50;;;;;10.50;100660.00;;;;10389257;28;20994;-77
2023/12/22 22:46:21;;;;;;;7.33;1.80;;;;;10.40;100666.00;;;;10370026;28;20675;-77
2023/12/22 22:51:24;;;;;;;9.87;1.40;;;;;10.40;100677.00;;;;10373564;28;20258;-77
2023/12/22 22:56:25;;;;;;;6.00;1.47;;;;;10.40;100679.00;;;;10364728;28;20888;-77
2023/12/22 23:01:26;;;;;;;5.53;1.20;;;;;10.40;100699.00;;;;10387903;28;20249;-76
2023/12/22 23:06:28;;;;;;;5.03;1.40;;;;;10.40;100707.00;;;;10402052;28;20972;-80
2023/12/22 23:11:29;;;;;;;5.87;1.33;;;;;10.30;100692.00;;;;10405066;28;20284;-83
2023/12/22 23:16:30;;;;;;;5.10;1.10;;;;;10.30;100705.00;;;;10383851;28;20882;-83
2023/12/22 23:21:31;;;;;;;4.33;1.40;;;;;10.30;100709.00;;;;10379494;28;20306;-82
2023/12/22 23:26:33;;;;;;;3.20;1.07;;;;;10.30;100704.00;;;;10393440;28;20244;-83
2023/12/22 23:31:34;;;;;;;4.93;1.43;;;;;10.30;100706.00;;;;10395232;28;20356;-81
2023/12/22 23:36:35;;;;;;;7.33;2.33;;;;;10.20;100722.00;;;;10419386;28;20264;-83
2023/12/22 23:41:36;;;;;;;10.13;2.03;;;;;10.20;100716.00;;;;10391436;28;20297;-83
2023/12/22 23:46:37;;;;;;;6.10;2.10;;;;;10.10;100713.00;;;;10392056;28;20306;-81
2023/12/22 23:51:39;;;;;;;10.23;2.70;;;;;10.10;100722.00;;;;10386142;28;20236;-83
2023/12/22 23:56:42;;;;;;;9.13;2.40;;;;;10.00;100720.00;;;;10390120;28;20249;-82
